Time;durP1;ratioP1;P1;durP2;ratioP2;P2;SDS_P1;SDS_P2;PMS_P1;PMS_P2;Temp;Humidity;BMP_temperature;BMP_pressure;BME280_temperature;BME280_humidity;BME280_pressure;Samples;Min_cycle;Max_cycle;Signal;HPM_P1;HPM_P2
2022/09/02 00:01:49;;;;;;;0.28;0.10;;;15.30;72.90;;;;;;5051182;28;20076;-52
2022/09/02 00:04:23;;;;;;;2.85;0.50;;;15.30;73.10;;;;;;5049364;28;20529;-50
2022/09/02 00:06:51;;;;;;;3.40;0.20;;;15.30;73.20;;;;;;5049949;28;20041;-49
2022/09/02 00:09:19;;;;;;;4.32;0.20;;;15.30;73.10;;;;;;5048602;28;20041;-52
2022/09/02 00:11:47;;;;;;;0.40;0.30;;;15.30;73.20;;;;;;5053289;28;20127;-50
2022/09/02 00:14:18;;;;;;;3.40;0.20;;;15.30;73.30;;;;;;5069129;28;20063;-53
2022/09/02 00:16:50;;;;;;;3.00;0.20;;;15.30;73.50;;;;;;5068041;28;20032;-50
2022/09/02 00:19:26;;;;;;;1.88;0.17;;;15.30;73.50;;;;;;5061408;28;20037;-47
2022/09/02 00:21:53;;;;;;;0.77;0.40;;;15.30;73.70;;;;;;5075418;28;20108;-49
2022/09/02 00:24:20;;;;;;;3.40;0.20;;;15.20;73.70;;;;;;5067881;28;20097;-48
2022/09/02 00:26:46;;;;;;;1.00;0.40;;;15.20;73.90;;;;;;5069583;28;20291;-48
2022/09/02 00:29:14;;;;;;;3.63;0.20;;;15.20;74.00;;;;;;5070058;28;20044;-47
2022/09/02 00:31:41;;;;;;;1.13;0.25;;;15.10;74.10;;;;;;5069492;28;20044;-52
2022/09/02 00:34:08;;;;;;;3.65;0.40;;;15.10;74.10;;;;;;5050933;28;20040;-50
2022/09/02 00:36:34;;;;;;;0.20;0.10;;;15.10;74.20;;;;;;5051505;28;20068;-53
2022/09/02 00:39:00;;;;;;;2.65;0.30;;;15.10;74.60;;;;;;5053597;28;20079;-52
2022/09/02 00:41:28;;;;;;;2.22;0.30;;;15.00;74.70;;;;;;5071338;28;20033;-52
2022/09/02 00:44:00;;;;;;;1.50;0.20;;;15.00;74.80;;;;;;5059470;28;20465;-53
2022/09/02 00:46:28;;;;;;;2.50;0.20;;;15.00;74.90;;;;;;5053487;28;20391;-52
2022/09/02 00:49:31;;;;;;;2.00;0.20;;;14.90;75.00;;;;;;5053147;28;20049;-50
2022/09/02 00:52:09;;;;;;;1.75;0.40;;;14.90;75.20;;;;;;5040650;28;20102;-51
2022/09/02 00:54:45;;;;;;;1.05;0.20;;;14.90;75.40;;;;;;5054006;28;20037;-52
2022/09/02 00:57:18;;;;;;;3.00;0.40;;;14.90;75.60;;;;;;5072986;28;20059;-52
2022/09/02 01:00:02;;;;;;;0.80;0.30;;;14.80;75.60;;;;;;5071394;28;20040;-49
2022/09/02 01:02:30;;;;;;;2.25;0.38;;;14.80;75.70;;;;;;5069324;28;20044;-51
2022/09/02 01:05:00;;;;;;;4.75;0.30;;;14.80;75.80;;;;;;5071330;28;20052;-49
2022/09/02 01:07:30;;;;;;;1.45;0.60;;;14.80;75.90;;;;;;5070852;28;20081;-52
2022/09/02 01:09:56;;;;;;;0.80;0.20;;;14.70;76.20;;;;;;5070802;28;20040;-53
2022/09/02 01:12:23;;;;;;;1.75;0.20;;;14.70;76.20;;;;;;5064873;28;20220;-52
2022/09/02 01:14:49;;;;;;;0.57;0.20;;;14.70;76.30;;;;;;5065540;28;20406;-49
2022/09/02 01:17:19;;;;;;;0.40;0.30;;;14.70;76.50;;;;;;5061302;28;20048;-51
2022/09/02 01:19:48;;;;;;;2.35;0.38;;;14.70;76.70;;;;;;5064058;28;20327;-50
2022/09/02 01:22:23;;;;;;;1.83;0.30;;;14.60;76.80;;;;;;5072317;28;20032;-51
2022/09/02 01:24:50;;;;;;;1.08;0.30;;;14.60;77.00;;;;;;5063613;28;20503;-50
2022/09/02 01:27:18;;;;;;;3.00;0.28;;;14.60;76.90;;;;;;5052620;28;20078;-51
2022/09/02 01:29:49;;;;;;;1.38;0.20;;;14.50;77.10;;;;;;5052597;28;20052;-51
2022/09/02 01:32:14;;;;;;;1.15;0.20;;;14.50;77.10;;;;;;5052407;28;20040;-52
2022/09/02 01:34:40;;;;;;;1.17;0.37;;;14.50;77.30;;;;;;5054096;28;20045;-52
2022/09/02 01:37:06;;;;;;;5.80;0.30;;;14.50;77.40;;;;;;5051017;28;20275;-49
2022/09/02 01:39:31;;;;;;;2.95;0.30;;;14.50;77.60;;;;;;5052538;28;20033;-51
2022/09/02 01:41:57;;;;;;;4.28;0.65;;;14.40;77.90;;;;;;5052596;28;20061;-50
2022/09/02 01:44:25;;;;;;;2.90;0.30;;;14.40;78.00;;;;;;5051790;28;20139;-52
2022/09/02 01:46:51;;;;;;;1.02;0.30;;;14.30;78.00;;;;;;5067038;28;20036;-52
2022/09/02 01:49:17;;;;;;;0.95;0.25;;;14.30;78.20;;;;;;5072092;28;20048;-52
2022/09/02 01:51:42;;;;;;;29.13;1.58;;;14.40;78.40;;;;;;5054733;28;20514;-51
2022/09/02 01:54:08;;;;;;;3.40;0.40;;;14.30;78.50;;;;;;5050911;28;20040;-49
2022/09/02 01:56:33;;;;;;;1.27;0.20;;;14.30;78.60;;;;;;5052377;28;20785;-52
2022/09/02 01:58:59;;;;;;;2.00;0.20;;;14.30;78.70;;;;;;5052022;28;20469;-48
2022/09/02 02:01:25;;;;;;;2.45;0.20;;;14.30;78.80;;;;;;5053228;28;20095;-48
2022/09/02 02:03:51;;;;;;;0.55;0.30;;;14.20;79.00;;;;;;5051490;28;20519;-53
2022/09/02 02:06:16;;;;;;;2.22;0.30;;;14.20;79.00;;;;;;5063821;28;20625;-51
2022/09/02 02:08:43;;;;;;;5.18;0.30;;;14.20;79.10;;;;;;5051604;28;20056;-51
2022/09/02 02:11:09;;;;;;;;;;;14.20;79.30;;;;;;5064195;28;20179;-52
2022/09/02 02:13:35;;;;;;;2.33;0.20;;;14.20;79.80;;;;;;5068643;28;20014;-49
2022/09/02 02:16:01;;;;;;;1.85;0.30;;;14.10;79.30;;;;;;5069801;28;20036;-51
2022/09/02 02:18:28;;;;;;;2.88;0.28;;;14.20;80.20;;;;;;5059891;28;20037;-52
2022/09/02 02:20:54;;;;;;;0.57;0.20;;;14.10;79.80;;;;;;5071416;28;20036;-51
2022/09/02 02:23:23;;;;;;;2.50;0.30;;;14.10;79.90;;;;;;5070812;28;20055;-50
2022/09/02 02:25:49;;;;;;;2.05;0.68;;;14.10;80.00;;;;;;5071062;28;20048;-49
2022/09/02 02:28:14;;;;;;;3.58;0.22;;;14.10;80.10;;;;;;5060453;28;20033;-52
2022/09/02 02:30:40;;;;;;;2.30;0.40;;;14.10;80.20;;;;;;5051249;28;20217;-53
2022/09/02 02:33:05;;;;;;;1.27;0.30;;;14.10;80.40;;;;;;5062119;28;20064;-52
2022/09/02 02:35:31;;;;;;;2.97;0.30;;;14.00;80.40;;;;;;5071195;28;20032;-51
2022/09/02 02:37:57;;;;;;;0.80;0.20;;;14.00;80.70;;;;;;5068076;28;20037;-51
2022/09/02 02:40:23;;;;;;;3.30;0.40;;;14.00;80.90;;;;;;5051533;28;20037;-52
2022/09/02 02:42:52;;;;;;;1.17;0.30;;;13.90;80.90;;;;;;5067030;28;20040;-51
2022/09/02 02:45:18;;;;;;;1.40;0.43;;;13.90;81.10;;;;;;5070135;28;20185;-49
2022/09/02 02:47:47;;;;;;;0.68;0.30;;;13.90;81.30;;;;;;5071452;28;20041;-52
2022/09/02 02:50:15;;;;;;;5.20;0.30;;;13.90;81.40;;;;;;5069220;28;20142;-49
2022/09/02 02:52:42;;;;;;;2.03;0.30;;;13.80;81.50;;;;;;5070547;28;20547;-49
2022/09/02 02:55:09;;;;;;;4.85;0.35;;;13.80;81.80;;;;;;5069266;28;20066;-48
2022/09/02 02:57:37;;;;;;;3.30;0.30;;;13.80;82.00;;;;;;5059307;28;20453;-52
2022/09/02 03:00:29;;;;;;;0.85;0.20;;;13.70;82.20;;;;;;5059775;28;20387;-48
2022/09/02 03:03:03;;;;;;;2.22;0.30;;;13.70;82.50;;;;;;5068973;28;20063;-48
2022/09/02 03:05:29;;;;;;;0.80;0.28;;;13.70;82.60;;;;;;5067284;28;20036;-48
2022/09/02 03:07:55;;;;;;;1.10;0.57;;;13.70;82.60;;;;;;5070151;28;20036;-48
2022/09/02 03:10:22;;;;;;;3.58;0.40;;;13.70;82.80;;;;;;5069921;28;20040;-47
2022/09/02 03:12:48;;;;;;;5.00;0.30;;;13.70;82.80;;;;;;5062122;28;20490;-49
2022/09/02 03:15:16;;;;;;;2.33;0.40;;;13.60;83.00;;;;;;5068807;28;20391;-47
2022/09/02 03:17:43;;;;;;;0.88;0.82;;;13.60;83.40;;;;;;5070165;28;20036;-47
2022/09/02 03:20:09;;;;;;;0.88;0.30;;;13.60;83.40;;;;;;5065388;28;20085;-48
2022/09/02 03:22:37;;;;;;;2.75;0.40;;;13.60;83.40;;;;;;5068153;28;20039;-49
2022/09/02 03:25:08;;;;;;;0.60;0.32;;;13.60;83.60;;;;;;5062551;28;20052;-47
2022/09/02 03:27:36;;;;;;;5.72;0.50;;;13.50;83.70;;;;;;5050481;28;20570;-48
2022/09/02 03:30:02;;;;;;;1.73;0.30;;;13.50;83.90;;;;;;5051385;28;20108;-49
2022/09/02 03:32:28;;;;;;;0.88;0.50;;;13.50;84.60;;;;;;5049978;28;20071;-47
2022/09/02 03:34:54;;;;;;;2.23;0.93;;;13.40;84.30;;;;;;5049863;28;20037;-48
2022/09/02 03:37:19;;;;;;;3.95;0.40;;;13.40;84.60;;;;;;5067364;28;20279;-48
2022/09/02 03:39:45;;;;;;;2.05;0.30;;;13.40;84.90;;;;;;5070037;28;20531;-48
2022/09/02 03:42:11;;;;;;;1.98;0.47;;;13.40;84.90;;;;;;5052092;28;20037;-47
2022/09/02 03:44:39;;;;;;;;;;;13.40;85.10;;;;;;5049893;28;20060;-47
2022/09/02 03:47:04;;;;;;;3.72;0.38;;;13.40;85.80;;;;;;5050346;28;19979;-47
2022/09/02 03:49:30;;;;;;;3.13;0.55;;;13.30;85.50;;;;;;5049716;28;20084;-47
2022/09/02 03:51:56;;;;;;;7.57;1.20;;;13.30;85.60;;;;;;5061804;28;20047;-47
2022/09/02 03:54:21;;;;;;;4.23;0.70;;;13.30;85.80;;;;;;5054371;28;20036;-47
2022/09/02 03:56:47;;;;;;;1.73;0.63;;;13.30;85.90;;;;;;5067618;28;20279;-47
2022/09/02 03:59:13;;;;;;;1.13;0.40;;;13.30;86.20;;;;;;5053598;28;20342;-47
2022/09/02 04:01:38;;;;;;;6.20;0.52;;;13.30;86.30;;;;;;5057520;28;20039;-47
2022/09/02 04:04:05;;;;;;;2.55;0.80;;;13.30;86.40;;;;;;5067774;28;20475;-46
2022/09/02 04:06:30;;;;;;;7.15;0.82;;;13.30;86.60;;;;;;5069552;28;20048;-48
2022/09/02 04:08:56;;;;;;;2.97;0.60;;;13.30;86.80;;;;;;5069983;28;20142;-48
2022/09/02 04:11:22;;;;;;;1.10;0.40;;;13.20;87.20;;;;;;5072933;28;20049;-47
2022/09/02 04:13:50;;;;;;;0.80;0.40;;;13.20;87.40;;;;;;5067937;28;20791;-46
2022/09/02 04:16:27;;;;;;;2.78;0.40;;;13.20;87.60;;;;;;5057037;28;20228;-48
2022/09/02 04:18:55;;;;;;;3.63;0.40;;;13.10;87.80;;;;;;5072330;28;20355;-49
2022/09/02 04:21:20;;;;;;;1.23;0.55;;;13.10;87.90;;;;;;5073201;28;20569;-48
2022/09/02 04:23:46;;;;;;;0.65;0.40;;;13.10;88.30;;;;;;5069848;28;20127;-47
2022/09/02 04:26:14;;;;;;;0.80;0.50;;;13.00;88.50;;;;;;5071595;28;20402;-49
2022/09/02 04:28:40;;;;;;;2.88;0.40;;;13.00;88.80;;;;;;5073513;28;20055;-52
2022/09/02 04:31:08;;;;;;;2.10;0.50;;;13.00;88.90;;;;;;5054133;28;20041;-49
2022/09/02 04:33:34;;;;;;;4.10;0.45;;;13.00;89.20;;;;;;5054704;28;20045;-52
2022/09/02 04:36:07;;;;;;;1.73;0.77;;;12.90;89.90;;;;;;5064689;28;20059;-47
2022/09/02 04:38:33;;;;;;;2.63;0.70;;;12.90;90.00;;;;;;5065251;28;20079;-48
2022/09/02 04:40:59;;;;;;;;;;;12.80;90.20;;;;;;5072650;28;20064;-47
2022/09/02 04:43:25;;;;;;;1.00;0.60;;;12.80;90.70;;;;;;5062390;28;20391;-48
2022/09/02 04:45:51;;;;;;;1.25;0.63;;;12.80;90.50;;;;;;5071277;28;20043;-51
2022/09/02 04:48:17;;;;;;;4.13;1.02;;;12.70;90.70;;;;;;5071986;28;20119;-47
2022/09/02 04:50:44;;;;;;;1.92;0.60;;;12.70;90.70;;;;;;5073219;28;20554;-48
2022/09/02 04:53:10;;;;;;;1.80;0.50;;;12.70;90.80;;;;;;5071544;28;20090;-52
2022/09/02 04:55:40;;;;;;;0.90;0.55;;;12.80;91.00;;;;;;5070709;28;20402;-47
2022/09/02 04:58:06;;;;;;;3.28;0.50;;;12.80;91.10;;;;;;5053254;28;20037;-48
2022/09/02 05:00:32;;;;;;;1.10;0.50;;;12.70;91.10;;;;;;5053033;28;20037;-48
2022/09/02 05:02:57;;;;;;;1.73;0.85;;;12.80;91.20;;;;;;5055499;28;20036;-48
2022/09/02 05:05:23;;;;;;;2.17;0.63;;;12.70;91.30;;;;;;5072638;28;20052;-50
2022/09/02 05:07:48;;;;;;;2.25;0.50;;;12.80;91.40;;;;;;5062667;28;20036;-48
2022/09/02 05:10:14;;;;;;;0.80;0.57;;;12.80;91.50;;;;;;5054143;28;20040;-49
2022/09/02 05:12:40;;;;;;;2.55;0.82;;;12.80;91.60;;;;;;5059336;28;20044;-49
2022/09/02 05:15:07;;;;;;;2.22;0.50;;;12.80;91.70;;;;;;5071623;28;20036;-47
2022/09/02 05:17:34;;;;;;;3.97;0.60;;;12.80;91.80;;;;;;5067214;28;20418;-47
2022/09/02 05:20:01;;;;;;;4.40;0.73;;;12.80;91.90;;;;;;5063069;28;20446;-48
2022/09/02 05:22:28;;;;;;;4.13;0.50;;;12.80;91.90;;;;;;5067365;28;20093;-52
2022/09/02 05:24:54;;;;;;;7.88;0.60;;;12.90;92.00;;;;;;5069764;28;20071;-49
2022/09/02 05:27:20;;;;;;;;;;;12.90;92.10;;;;;;5057737;28;20044;-55
2022/09/02 05:29:46;;;;;;;1.65;1.00;;;12.90;92.50;;;;;;5050966;28;19939;-51
2022/09/02 05:32:11;;;;;;;1.02;0.60;;;12.90;92.30;;;;;;5053061;28;20124;-46
2022/09/02 05:34:37;;;;;;;2.67;1.25;;;12.90;92.40;;;;;;5058418;28;20032;-48
2022/09/02 05:37:04;;;;;;;2.97;0.90;;;13.00;92.60;;;;;;5052219;28;20511;-51
2022/09/02 05:39:29;;;;;;;2.30;0.68;;;13.00;92.70;;;;;;5066300;28;20070;-48
2022/09/02 05:41:55;;;;;;;3.63;0.63;;;13.00;92.80;;;;;;5072227;28;20033;-47
2022/09/02 05:44:21;;;;;;;3.03;0.82;;;13.00;92.90;;;;;;5066545;28;20037;-47
2022/09/02 05:46:46;;;;;;;2.40;0.80;;;13.10;93.00;;;;;;5052346;28;20040;-49
2022/09/02 05:49:21;;;;;;;4.45;0.90;;;13.10;93.00;;;;;;5053363;28;20037;-47
2022/09/02 05:51:52;;;;;;;1.25;0.57;;;13.20;93.20;;;;;;5052222;28;20044;-48
2022/09/02 05:54:27;;;;;;;5.25;0.95;;;13.30;93.40;;;;;;5051732;28;20055;-49
2022/09/02 05:56:56;;;;;;;5.50;0.82;;;13.30;93.50;;;;;;5068801;28;20499;-48
2022/09/02 05:59:24;;;;;;;4.40;1.05;;;13.40;93.40;;;;;;5077680;28;20437;-46
2022/09/02 06:01:50;;;;;;;2.53;0.90;;;13.50;93.40;;;;;;5076146;28;20048;-47
2022/09/02 06:04:16;;;;;;;3.95;1.00;;;13.60;93.40;;;;;;5070230;28;20079;-47
2022/09/02 06:06:42;;;;;;;10.50;0.80;;;13.70;93.40;;;;;;5068981;28;20502;-47
2022/09/02 06:09:10;;;;;;;1.33;0.85;;;13.80;93.30;;;;;;5071560;28;20044;-46
2022/09/02 06:11:38;;;;;;;2.85;1.00;;;13.90;93.30;;;;;;5071647;28;20040;-48
2022/09/02 06:14:06;;;;;;;3.40;0.80;;;14.00;93.10;;;;;;5071665;28;20048;-48
2022/09/02 06:16:33;;;;;;;1.05;0.80;;;14.10;93.10;;;;;;5069618;28;20094;-47
2022/09/02 06:18:59;;;;;;;2.60;0.77;;;14.20;92.90;;;;;;5071718;28;20068;-47
2022/09/02 06:21:24;;;;;;;66.85;3.53;;;14.30;93.00;;;;;;5065527;28;20106;-47
2022/09/02 06:23:50;;;;;;;3.10;0.88;;;14.40;92.80;;;;;;5055658;28;20083;-48
2022/09/02 06:26:16;;;;;;;7.35;1.13;;;14.50;92.90;;;;;;5053014;28;20120;-50
2022/09/02 06:28:42;;;;;;;;;;;14.60;92.90;;;;;;5051941;28;20095;-48
2022/09/02 06:31:15;;;;;;;3.63;0.90;;;14.70;92.90;;;;;;5058653;28;20390;-49
2022/09/02 06:33:42;;;;;;;2.80;0.55;;;14.80;92.60;;;;;;5069763;28;20051;-48
2022/09/02 06:36:10;;;;;;;5.60;0.85;;;14.90;92.40;;;;;;5066631;28;20134;-47
2022/09/02 06:38:38;;;;;;;2.40;0.80;;;15.00;92.30;;;;;;5051373;28;20041;-52
2022/09/02 06:41:04;;;;;;;2.42;0.93;;;15.10;92.20;;;;;;5052271;28;20048;-48
2022/09/02 06:43:30;;;;;;;4.07;0.82;;;15.10;92.20;;;;;;5050619;28;20036;-48
2022/09/02 06:45:55;;;;;;;8.38;0.82;;;15.30;92.10;;;;;;5051873;28;20419;-50
2022/09/02 06:48:21;;;;;;;3.53;0.70;;;15.40;91.90;;;;;;5063179;28;20072;-48
2022/09/02 06:50:46;;;;;;;1.27;0.65;;;15.40;91.90;;;;;;5060999;28;20037;-49
2022/09/02 06:53:12;;;;;;;5.57;0.82;;;15.50;91.70;;;;;;5067031;28;20029;-50
2022/09/02 06:55:41;;;;;;;1.52;0.77;;;15.60;91.60;;;;;;5070276;28;20039;-49
2022/09/02 06:58:07;;;;;;;1.38;0.63;;;15.70;91.50;;;;;;5059313;28;20036;-49
2022/09/02 07:00:34;;;;;;;3.92;0.80;;;15.80;91.40;;;;;;5063776;28;20514;-48
2022/09/02 07:05:45;;;;;;;2.63;0.80;;;16.00;91.50;;;;;;5049780;28;20411;-48
2022/09/02 07:08:11;;;;;;;0.98;0.50;;;16.20;91.40;;;;;;5058346;28;20033;-49
2022/09/02 07:10:38;;;;;;;5.28;0.68;;;16.30;91.00;;;;;;5050880;28;20041;-49
2022/09/02 07:13:04;;;;;;;4.25;0.60;;;16.30;90.90;;;;;;5057991;28;20060;-48
2022/09/02 07:15:30;;;;;;;;;;;16.40;90.80;;;;;;5060254;28;20040;-50
2022/09/02 07:17:56;;;;;;;6.35;0.90;;;16.50;90.70;;;;;;5055457;28;19923;-51
2022/09/02 07:20:22;;;;;;;2.45;0.70;;;16.60;90.50;;;;;;5057944;28;20029;-48
2022/09/02 07:22:48;;;;;;;;;;;16.80;90.60;;;;;;5061518;28;20078;-49
2022/09/02 07:25:15;;;;;;;169.80;14.32;;;16.90;90.40;;;;;;5053199;28;19955;-48
2022/09/02 07:27:42;;;;;;;1.23;0.40;;;17.00;90.20;;;;;;5049359;28;20064;-49
2022/09/02 07:30:09;;;;;;;5.35;0.80;;;17.10;89.90;;;;;;5055905;28;20436;-49
2022/09/02 07:32:34;;;;;;;11.18;0.52;;;17.20;89.40;;;;;;5061066;28;20058;-47
2022/09/02 07:35:00;;;;;;;1.20;0.30;;;17.30;89.50;;;;;;5056007;28;20055;-49
2022/09/02 07:37:27;;;;;;;4.55;0.32;;;17.40;89.00;;;;;;5060432;28;20040;-51
2022/09/02 07:39:52;;;;;;;65.38;3.85;;;17.50;88.10;;;;;;5052773;28;20036;-53
2022/09/02 07:42:18;;;;;;;1.80;0.47;;;17.60;87.90;;;;;;5058730;28;20031;-53
2022/09/02 07:44:44;;;;;;;7.68;0.47;;;17.70;87.60;;;;;;5054614;28;20051;-50
2022/09/02 07:47:09;;;;;;;4.60;0.88;;;17.80;86.90;;;;;;5053350;28;20045;-48
2022/09/02 07:49:35;;;;;;;3.22;0.43;;;17.90;87.00;;;;;;5063562;28;20036;-50
2022/09/02 07:52:01;;;;;;;17.95;1.08;;;18.00;86.50;;;;;;5054050;28;21090;-54
2022/09/02 07:54:26;;;;;;;9.25;0.52;;;18.10;86.10;;;;;;5051153;28;20051;-53
2022/09/02 07:56:52;;;;;;;6.32;0.30;;;18.20;86.20;;;;;;5056405;28;20037;-53
2022/09/02 07:59:20;;;;;;;;;;;18.30;85.70;;;;;;5049804;28;20114;-49
2022/09/02 08:01:47;;;;;;;4.15;0.50;;;18.40;85.20;;;;;;5057830;28;19920;-50
2022/09/02 08:04:14;;;;;;;4.07;0.60;;;18.50;85.10;;;;;;5064745;28;20036;-51
2022/09/02 08:06:40;;;;;;;4.82;0.70;;;18.70;84.50;;;;;;5060028;28;20439;-51
2022/09/02 08:09:11;;;;;;;2.92;0.32;;;18.80;84.40;;;;;;5050448;28;20059;-49
2022/09/02 08:11:39;;;;;;;4.05;0.30;;;18.80;83.60;;;;;;5061230;28;20119;-53
2022/09/02 08:14:07;;;;;;;3.97;0.50;;;18.90;83.60;;;;;;5049147;28;20753;-49
2022/09/02 08:16:33;;;;;;;1.90;0.25;;;19.00;84.40;;;;;;5052643;28;20033;-49
2022/09/02 08:18:59;;;;;;;3.50;0.38;;;19.20;83.20;;;;;;5061106;28;20040;-53
2022/09/02 08:21:24;;;;;;;;;;;19.30;83.30;;;;;;5068352;28;20083;-53
2022/09/02 08:23:50;;;;;;;8.02;0.30;;;19.40;83.00;;;;;;5055080;28;19968;-51
2022/09/02 08:26:17;;;;;;;1.27;0.35;;;19.50;82.80;;;;;;5056122;28;20374;-51
2022/09/02 08:28:43;;;;;;;2.38;0.40;;;19.60;82.20;;;;;;5062268;28;20035;-53
2022/09/02 08:31:09;;;;;;;2.25;0.30;;;19.70;81.80;;;;;;5056957;28;20048;-54
2022/09/02 08:33:35;;;;;;;3.67;0.47;;;19.70;81.30;;;;;;5056182;28;20082;-48
2022/09/02 08:36:03;;;;;;;2.92;0.30;;;19.80;81.40;;;;;;5049067;28;20510;-50
2022/09/02 08:38:29;;;;;;;2.38;0.60;;;19.90;80.90;;;;;;5056823;28;20044;-53
2022/09/02 08:40:55;;;;;;;115.88;7.32;;;20.10;81.60;;;;;;5066029;28;20082;-53
2022/09/02 08:43:38;;;;;;;;;;;20.20;81.50;;;;;;5052224;28;20052;-49
2022/09/02 08:46:07;;;;;;;2.30;0.20;;;20.20;79.60;;;;;;5073089;28;20007;-48
2022/09/02 08:48:51;;;;;;;2.90;0.28;;;20.40;80.90;;;;;;5067528;28;20064;-51
2022/09/02 08:51:44;;;;;;;9.60;0.40;;;20.50;80.50;;;;;;5051600;28;20037;-51
2022/09/02 08:54:17;;;;;;;5.45;0.30;;;20.60;79.40;;;;;;5068060;28;20127;-51
2022/09/02 08:56:42;;;;;;;3.17;0.22;;;20.70;78.80;;;;;;5071073;28;20402;-50
2022/09/02 08:59:11;;;;;;;2.97;0.47;;;20.80;77.80;;;;;;5064483;28;20106;-52
2022/09/02 09:02:11;;;;;;;2.72;0.28;;;20.80;78.20;;;;;;5071572;28;20061;-48
2022/09/02 09:04:48;;;;;;;5.53;0.40;;;20.90;78.20;;;;;;5061578;28;20380;-52
2022/09/02 09:07:39;;;;;;;2.85;0.35;;;21.10;78.80;;;;;;5071427;28;20040;-48
2022/09/02 09:10:35;;;;;;;6.78;0.30;;;21.20;78.20;;;;;;5058522;28;20045;-49
2022/09/02 09:13:18;;;;;;;6.43;0.30;;;21.30;76.50;;;;;;5070492;28;20399;-52
2022/09/02 09:15:57;;;;;;;3.47;0.30;;;21.40;76.10;;;;;;5057102;28;20029;-51
2022/09/02 09:18:38;;;;;;;3.38;0.20;;;21.50;76.90;;;;;;5053021;28;20352;-49
2022/09/02 09:21:05;;;;;;;4.20;0.20;;;21.60;75.70;;;;;;5052680;28;20037;-49
2022/09/02 09:23:34;;;;;;;3.58;0.40;;;21.70;75.40;;;;;;5051982;28;20157;-48
2022/09/02 09:26:05;;;;;;;3.03;0.30;;;21.70;75.20;;;;;;5052322;28;20104;-50
2022/09/02 09:28:36;;;;;;;4.47;0.30;;;21.80;73.90;;;;;;5052705;28;20045;-51
2022/09/02 09:31:01;;;;;;;0.95;0.52;;;21.80;74.50;;;;;;5053746;28;20431;-54
2022/09/02 09:33:27;;;;;;;;;;;21.90;74.50;;;;;;5063987;28;20045;-52
2022/09/02 09:35:54;;;;;;;3.92;0.45;;;22.00;73.30;;;;;;5071495;28;20322;-50
2022/09/02 09:38:31;;;;;;;2.13;0.30;;;22.10;74.30;;;;;;5056137;28;20041;-52
2022/09/02 09:41:09;;;;;;;9.07;0.45;;;22.10;73.10;;;;;;5059424;28;20032;-51
2022/09/02 09:43:35;;;;;;;2.63;0.30;;;22.20;73.40;;;;;;5060330;28;20029;-56
2022/09/02 09:46:18;;;;;;;;;;;22.30;73.50;;;;;;5052898;28;20045;-53
2022/09/02 09:48:48;;;;;;;4.82;0.32;;;22.40;72.50;;;;;;5054483;28;19970;-56
2022/09/02 09:51:14;;;;;;;3.97;0.50;;;22.50;72.90;;;;;;5064848;28;20757;-50
2022/09/02 09:53:40;;;;;;;1.88;0.20;;;22.50;71.50;;;;;;5070170;28;20041;-53
2022/09/02 09:56:21;;;;;;;;;;;22.60;71.40;;;;;;5072642;28;20556;-53
2022/09/02 09:58:48;;;;;;;4.88;0.70;;;22.70;70.80;;;;;;5054424;28;20285;-52
2022/09/02 10:01:24;;;;;;;9.40;0.28;;;22.80;70.60;;;;;;5053211;28;20522;-52
2022/09/02 10:04:01;;;;;;;7.13;0.35;;;22.80;69.70;;;;;;5052384;28;20132;-53
2022/09/02 10:06:30;;;;;;;2.47;0.40;;;22.90;69.80;;;;;;5052187;28;20069;-48
2022/09/02 10:09:00;;;;;;;20.70;1.00;;;23.00;69.00;;;;;;5050407;28;20477;-51
2022/09/02 10:11:31;;;;;;;2.80;0.28;;;23.30;68.60;;;;;;5059253;28;20039;-50
2022/09/02 10:14:03;;;;;;;3.55;0.20;;;23.30;68.50;;;;;;5066387;28;20040;-54
2022/09/02 10:16:47;;;;;;;2.83;0.30;;;23.40;67.80;;;;;;5051729;28;20048;-51
2022/09/02 10:19:42;;;;;;;1.83;0.20;;;23.40;67.30;;;;;;5051843;28;20115;-54
2022/09/02 10:22:46;;;;;;;3.95;0.20;;;23.50;68.20;;;;;;5051743;28;20061;-50
2022/09/02 10:25:35;;;;;;;2.40;0.40;;;23.60;65.80;;;;;;5065295;28;20411;-51
2022/09/02 10:28:23;;;;;;;0.80;0.47;;;23.70;66.30;;;;;;5053434;28;20567;-53
2022/09/02 10:31:01;;;;;;;1.77;0.30;;;23.60;62.40;;;;;;5070659;28;20040;-51
2022/09/02 10:33:42;;;;;;;4.20;0.20;;;23.70;64.50;;;;;;5069375;28;20119;-52
2022/09/02 10:36:23;;;;;;;1.80;0.30;;;23.70;64.80;;;;;;5066443;28;20037;-51
2022/09/02 10:38:49;;;;;;;2.33;0.20;;;23.80;63.90;;;;;;5061860;28;20411;-52
2022/09/02 10:41:25;;;;;;;;;;;23.80;62.90;;;;;;5070733;28;20312;-52
2022/09/02 10:44:22;;;;;;;4.38;0.10;;;23.80;62.60;;;;;;5049886;28;19921;-53
2022/09/02 10:47:03;;;;;;;5.80;0.30;;;23.80;61.90;;;;;;5056406;28;20075;-51
2022/09/02 10:49:49;;;;;;;6.15;0.20;;;23.80;62.20;;;;;;5062810;28;20036;-53
2022/09/02 10:52:32;;;;;;;2.80;0.20;;;23.90;62.30;;;;;;5050795;28;20522;-53
2022/09/02 10:55:16;;;;;;;0.88;0.20;;;23.90;62.20;;;;;;5049030;28;20045;-50
2022/09/02 10:57:58;;;;;;;3.65;0.20;;;24.00;62.30;;;;;;5050218;28;20044;-53
2022/09/02 11:00:27;;;;;;;2.05;0.20;;;24.00;62.60;;;;;;5052755;28;20037;-55
2022/09/02 11:03:04;;;;;;;3.17;0.40;;;24.10;62.90;;;;;;5050553;28;20500;-53
2022/09/02 11:05:44;;;;;;;6.88;0.50;;;24.30;62.40;;;;;;5050494;28;20040;-49
2022/09/02 11:08:31;;;;;;;3.15;0.20;;;24.30;60.70;;;;;;5068415;28;20040;-52
2022/09/02 11:11:10;;;;;;;3.15;0.15;;;24.20;59.70;;;;;;5055802;28;20037;-50
2022/09/02 11:13:57;;;;;;;4.30;0.40;;;24.10;60.00;;;;;;5050057;28;20045;-55
2022/09/02 11:16:26;;;;;;;3.88;0.20;;;24.20;61.30;;;;;;5050412;28;20044;-52
2022/09/02 11:19:20;;;;;;;1.83;0.20;;;24.20;61.50;;;;;;5052555;28;20588;-54
2022/09/02 11:22:01;;;;;;;1.75;0.20;;;24.30;60.70;;;;;;5066537;28;20036;-52
2022/09/02 11:24:33;;;;;;;1.85;0.52;;;24.30;60.40;;;;;;5052264;28;20086;-52
2022/09/02 11:27:16;;;;;;;0.45;0.20;;;24.40;59.50;;;;;;5063598;28;20037;-55
2022/09/02 11:30:02;;;;;;;4.80;0.20;;;24.40;59.30;;;;;;5059415;28;20105;-48
2022/09/02 11:32:41;;;;;;;10.05;0.45;;;24.40;59.30;;;;;;5038893;28;20033;-49
2022/09/02 11:35:13;;;;;;;0.65;0.30;;;24.40;59.20;;;;;;5062524;28;20040;-49
2022/09/02 11:37:50;;;;;;;2.10;0.13;;;24.60;59.90;;;;;;5063727;28;20044;-51
2022/09/02 11:40:36;;;;;;;8.30;0.30;;;24.70;59.50;;;;;;5052368;28;20032;-50
2022/09/02 11:43:26;;;;;;;2.28;0.28;;;24.70;59.30;;;;;;5060259;28;20043;-49
2022/09/02 11:46:11;;;;;;;2.67;0.10;;;24.70;58.30;;;;;;5053976;28;20045;-50
2022/09/02 11:49:35;;;;;;;4.80;0.32;;;24.80;58.80;;;;;;5053579;28;20111;-49
2022/09/02 11:52:10;;;;;;;1.05;0.20;;;24.80;58.20;;;;;;5020487;28;20041;-50
2022/09/02 11:54:40;;;;;;;0.75;0.20;;;24.90;58.30;;;;;;5066993;28;20056;-52
2022/09/02 11:57:10;;;;;;;7.30;0.35;;;24.90;57.80;;;;;;5069173;28;20127;-51
2022/09/02 12:00:07;;;;;;;3.72;0.30;;;24.90;57.40;;;;;;5067930;28;20039;-52
2022/09/02 12:02:53;;;;;;;4.05;0.38;;;24.90;56.80;;;;;;5020933;28;20056;-51
2022/09/02 12:05:28;;;;;;;2.35;0.30;;;24.90;57.40;;;;;;5026678;28;20132;-51
2022/09/02 12:08:15;;;;;;;5.30;0.30;;;24.90;56.90;;;;;;5027253;28;20049;-50
2022/09/02 12:10:44;;;;;;;2.58;0.30;;;24.90;56.30;;;;;;4983207;28;20128;-53
2022/09/02 12:13:42;;;;;;;0.95;0.30;;;24.90;56.60;;;;;;5026692;28;20136;-50
2022/09/02 12:16:19;;;;;;;0.40;0.20;;;24.90;55.90;;;;;;5026828;28;20038;-49
2022/09/02 12:18:52;;;;;;;3.22;0.22;;;24.90;55.70;;;;;;5027042;28;20053;-52
2022/09/02 12:21:19;;;;;;;1.92;0.20;;;24.90;55.30;;;;;;5026842;28;20120;-51
2022/09/02 12:23:48;;;;;;;0.47;0.20;;;24.90;56.10;;;;;;5026627;28;20049;-51
2022/09/02 12:26:15;;;;;;;0.85;0.30;;;25.00;57.30;;;;;;5010082;28;20111;-52
2022/09/02 12:28:45;;;;;;;3.05;0.20;;;25.00;56.80;;;;;;5021585;28;20045;-51
2022/09/02 12:31:27;;;;;;;0.73;0.20;;;25.10;57.10;;;;;;5029269;28;20470;-50
2022/09/02 12:33:53;;;;;;;1.33;0.30;;;25.10;56.40;;;;;;5010860;28;20046;-51
2022/09/02 12:36:43;;;;;;;6.10;0.40;;;25.10;56.20;;;;;;5017621;28;20104;-50
2022/09/02 12:39:24;;;;;;;1.45;0.30;;;25.20;56.50;;;;;;5032370;28;20045;-51
2022/09/02 12:42:09;;;;;;;3.45;0.20;;;25.30;55.80;;;;;;5070695;28;20043;-53
2022/09/02 12:45:05;;;;;;;2.28;0.20;;;25.30;56.00;;;;;;5072890;28;20045;-50
2022/09/02 12:47:37;;;;;;;177.77;15.30;;;25.30;56.60;;;;;;5073006;28;20044;-55
2022/09/02 12:50:20;;;;;;;5.28;0.40;;;25.40;57.00;;;;;;5073449;28;20052;-54
2022/09/02 12:52:48;;;;;;;4.30;0.20;;;25.40;55.90;;;;;;5071467;28;20029;-54
2022/09/02 12:55:28;;;;;;;4.63;0.30;;;25.50;56.50;;;;;;5057055;28;20503;-54
2022/09/02 12:58:09;;;;;;;1.63;0.30;;;25.60;56.00;;;;;;5053213;28;20036;-55
2022/09/02 13:00:57;;;;;;;6.78;0.30;;;25.50;56.00;;;;;;5052805;28;20052;-50
2022/09/02 13:03:30;;;;;;;1.35;0.50;;;25.60;55.80;;;;;;5053466;28;20422;-53
2022/09/02 13:06:19;;;;;;;1.05;0.20;;;25.70;56.20;;;;;;5054002;28;20048;-52
2022/09/02 13:08:53;;;;;;;3.05;0.30;;;25.80;55.20;;;;;;5070307;28;20040;-48
2022/09/02 13:11:39;;;;;;;3.33;0.50;;;25.80;55.80;;;;;;5072859;28;20457;-51
2022/09/02 13:14:28;;;;;;;2.60;0.30;;;25.80;55.30;;;;;;5054677;28;20091;-53